Time;durP1;ratioP1;P1;durP2;ratioP2;P2;SDS_P1;SDS_P2;PMS_P1;PMS_P2;Temp;Humidity;BMP_temperature;BMP_pressure;BME280_temperature;BME280_humidity;BME280_pressure;Samples;Min_cycle;Max_cycle;Signal;HPM_P1;HPM_P2
2022/03/17 00:02:07;;;;;;;1.60;1.08;;;11.30;99.90;;;;;;6338208;22;20003;-74
2022/03/17 00:04:33;;;;;;;0.93;0.70;;;11.30;99.90;;;;;;6348397;22;20090;-74
2022/03/17 00:06:59;;;;;;;1.10;1.10;;;11.30;99.90;;;;;;6338311;22;20003;-74
2022/03/17 00:09:25;;;;;;;0.38;0.38;;;11.30;99.90;;;;;;6337802;22;20010;-75
2022/03/17 00:11:52;;;;;;;1.65;1.55;;;11.30;99.90;;;;;;6348031;22;20129;-75
2022/03/17 00:14:19;;;;;;;0.63;0.63;;;11.20;99.90;;;;;;6348275;22;20089;-74
2022/03/17 00:16:45;;;;;;;1.17;1.13;;;11.20;99.90;;;;;;6338201;22;20007;-74
2022/03/17 00:19:11;;;;;;;0.50;0.50;;;11.20;99.90;;;;;;6348449;22;20007;-74
2022/03/17 00:21:38;;;;;;;0.20;0.20;;;11.20;99.90;;;;;;6347860;22;20014;-74
2022/03/17 00:24:08;;;;;;;0.75;0.75;;;11.20;99.90;;;;;;6337622;22;20432;-74
2022/03/17 00:26:36;;;;;;;5.78;1.17;;;11.20;99.90;;;;;;6284100;22;20336;-74
2022/03/17 00:29:03;;;;;;;2.55;1.17;;;11.20;99.90;;;;;;6348313;22;20002;-74
2022/03/17 00:31:29;;;;;;;3.75;1.40;;;11.10;99.90;;;;;;6348008;22;20448;-74
2022/03/17 00:33:55;;;;;;;0.82;0.63;;;11.10;99.90;;;;;;6338047;22;20320;-74
2022/03/17 00:36:21;;;;;;;1.92;1.83;;;11.10;99.90;;;;;;6337735;22;20064;-74
2022/03/17 00:38:48;;;;;;;0.77;0.70;;;11.10;99.90;;;;;;6338061;22;20056;-74
2022/03/17 00:41:13;;;;;;;0.10;0.10;;;11.10;99.90;;;;;;6337715;22;20064;-74
2022/03/17 00:43:39;;;;;;;1.10;1.00;;;11.00;99.90;;;;;;6347938;22;20231;-74
2022/03/17 00:46:05;;;;;;;6.57;1.80;;;11.00;99.90;;;;;;6337788;22;20006;-74
2022/03/17 00:48:31;;;;;;;1.25;1.15;;;11.00;99.90;;;;;;6347749;22;20439;-75
2022/03/17 00:50:57;;;;;;;0.40;0.40;;;11.00;99.90;;;;;;6348038;22;20005;-74
2022/03/17 00:53:23;;;;;;;0.63;0.43;;;10.90;99.90;;;;;;6347523;22;20018;-75
2022/03/17 00:55:48;;;;;;;0.40;0.40;;;10.90;99.90;;;;;;6337869;22;20491;-73
2022/03/17 00:58:14;;;;;;;1.08;0.98;;;10.90;99.90;;;;;;6347841;22;19999;-73
2022/03/17 01:00:40;;;;;;;3.03;0.85;;;10.90;99.90;;;;;;6347688;22;20017;-73
2022/03/17 01:03:06;;;;;;;0.30;0.30;;;10.90;99.90;;;;;;6337691;22;20336;-73
2022/03/17 01:05:32;;;;;;;0.70;0.68;;;10.80;99.90;;;;;;6347705;22;20028;-73
2022/03/17 01:07:58;;;;;;;0.82;0.82;;;10.80;99.90;;;;;;6309955;22;20010;-73
2022/03/17 01:10:24;;;;;;;1.55;1.45;;;10.80;99.90;;;;;;6337704;22;20011;-73
2022/03/17 01:12:50;;;;;;;0.65;0.65;;;10.80;99.90;;;;;;6347551;22;20045;-73
2022/03/17 01:15:18;;;;;;;0.40;0.40;;;10.80;99.90;;;;;;6337541;22;20071;-73
2022/03/17 01:17:45;;;;;;;1.45;1.35;;;10.70;99.90;;;;;;6337680;22;19999;-75
2022/03/17 01:20:11;;;;;;;0.30;0.30;;;10.70;99.90;;;;;;6309692;22;20006;-73
2022/03/17 01:22:38;;;;;;;2.00;1.90;;;10.80;99.90;;;;;;6337414;22;20002;-73
2022/03/17 01:25:09;;;;;;;2.33;1.63;;;10.80;99.90;;;;;;6347682;22;20029;-74
2022/03/17 01:27:35;;;;;;;0.30;0.30;;;10.80;99.90;;;;;;6347670;22;20009;-73
2022/03/17 01:30:04;;;;;;;0.35;0.35;;;10.70;99.90;;;;;;6347813;22;20006;-73
2022/03/17 01:32:31;;;;;;;0.60;0.60;;;10.70;99.90;;;;;;6337377;22;20007;-73
2022/03/17 01:34:57;;;;;;;5.97;1.30;;;10.70;99.90;;;;;;6347508;22;20006;-73
2022/03/17 01:37:23;;;;;;;2.38;1.38;;;10.60;99.90;;;;;;6336863;22;20018;-73
2022/03/17 01:39:48;;;;;;;0.65;0.65;;;10.60;99.90;;;;;;6337532;22;20041;-73
2022/03/17 01:42:14;;;;;;;0.17;0.17;;;10.60;99.90;;;;;;6347159;22;20051;-72
2022/03/17 01:44:40;;;;;;;0.75;0.75;;;10.60;99.90;;;;;;6337358;22;20007;-73
2022/03/17 01:49:52;;;;;;;0.93;0.80;;;10.70;99.90;;;;;;6337557;22;20006;-73
2022/03/17 01:52:18;;;;;;;2.85;1.00;;;10.70;99.90;;;;;;6337410;22;20010;-73
2022/03/17 01:54:44;;;;;;;0.40;0.40;;;10.80;99.90;;;;;;6336556;22;20011;-73
2022/03/17 01:57:11;;;;;;;0.75;0.75;;;10.70;99.90;;;;;;6347476;22;20439;-73
2022/03/17 01:59:40;;;;;;;13.95;1.55;;;10.50;99.90;;;;;;6347115;22;20014;-73
2022/03/17 02:02:12;;;;;;;1.05;1.02;;;10.50;99.90;;;;;;6347365;22;20030;-74
2022/03/17 02:04:41;;;;;;;0.38;0.38;;;10.50;99.90;;;;;;6337010;22;20044;-73
2022/03/17 02:07:08;;;;;;;0.32;0.32;;;10.60;99.90;;;;;;6347223;22;20082;-73
2022/03/17 02:09:35;;;;;;;1.77;1.30;;;10.60;99.90;;;;;;6336964;22;20014;-73
2022/03/17 02:14:51;;;;;;;0.90;0.90;;;10.50;99.90;;;;;;6347065;22;20018;-73
2022/03/17 02:17:18;;;;;;;0.90;0.90;;;10.50;99.90;;;;;;6347098;22;20450;-73
2022/03/17 02:19:45;;;;;;;2.30;1.55;;;10.50;99.90;;;;;;6346818;22;20013;-73
2022/03/17 02:22:15;;;;;;;2.20;2.05;;;10.50;99.90;;;;;;6309185;22;20332;-73
2022/03/17 02:27:32;;;;;;;3.60;1.10;;;10.40;99.90;;;;;;6346878;22;19999;-73
2022/03/17 02:29:59;;;;;;;0.85;0.82;;;10.40;99.90;;;;;;6320401;22;20067;-73
2022/03/17 02:32:26;;;;;;;0.55;0.55;;;10.40;99.90;;;;;;6336950;22;20013;-73
2022/03/17 02:34:54;;;;;;;1.08;0.90;;;10.40;99.90;;;;;;6309491;22;20038;-73
2022/03/17 02:37:22;;;;;;;1.38;1.27;;;10.40;99.90;;;;;;6347220;22;20068;-73
2022/03/17 02:39:48;;;;;;;1.58;0.68;;;10.40;99.90;;;;;;6346970;22;20093;-73
2022/03/17 02:42:14;;;;;;;4.45;3.70;;;10.40;99.90;;;;;;6346665;22;20041;-74
2022/03/17 02:44:39;;;;;;;0.65;0.65;;;10.50;99.90;;;;;;6336541;22;20080;-73
2022/03/17 02:47:06;;;;;;;0.88;0.88;;;10.40;99.90;;;;;;6336848;22;20058;-74
2022/03/17 02:49:33;;;;;;;1.38;1.27;;;10.40;99.90;;;;;;6310307;22;20451;-73
2022/03/17 02:51:59;;;;;;;0.15;0.15;;;10.30;99.90;;;;;;6321688;22;20002;-73
2022/03/17 02:54:25;;;;;;;0.85;0.63;;;10.30;99.90;;;;;;6320961;22;20075;-73
2022/03/17 02:56:50;;;;;;;0.55;0.55;;;10.30;99.90;;;;;;6349028;22;20014;-74
2022/03/17 02:59:16;;;;;;;0.35;0.35;;;10.30;99.90;;;;;;6349196;22;20011;-74
2022/03/17 03:01:42;;;;;;;2.53;1.95;;;10.20;99.90;;;;;;6348813;22;20026;-73
2022/03/17 03:04:07;;;;;;;0.95;0.90;;;10.20;99.90;;;;;;6338792;22;20007;-74
2022/03/17 03:06:33;;;;;;;0.25;0.25;;;10.30;99.90;;;;;;6348768;22;19999;-73
2022/03/17 03:08:59;;;;;;;1.27;1.20;;;10.20;99.90;;;;;;6348969;22;20067;-74
2022/03/17 03:11:25;;;;;;;1.23;1.15;;;10.20;99.90;;;;;;6348792;22;20018;-74
2022/03/17 03:13:51;;;;;;;0.30;0.30;;;10.20;99.90;;;;;;6338542;22;20015;-74
2022/03/17 03:16:17;;;;;;;1.02;1.00;;;10.20;99.90;;;;;;6348874;22;20087;-74
2022/03/17 03:18:44;;;;;;;3.50;2.60;;;10.10;99.90;;;;;;6321113;22;20410;-73
2022/03/17 03:21:10;;;;;;;0.52;0.52;;;10.00;99.90;;;;;;6310963;22;20026;-74
2022/03/17 03:23:37;;;;;;;4.60;1.73;;;10.00;99.90;;;;;;6348647;22;20089;-74
2022/03/17 03:26:03;;;;;;;1.58;1.48;;;9.90;99.90;;;;;;6338438;22;20007;-74
2022/03/17 03:28:28;;;;;;;0.20;0.20;;;10.00;99.90;;;;;;6338427;22;20016;-74
2022/03/17 03:30:54;;;;;;;0.40;0.40;;;10.00;99.90;;;;;;6348805;22;20446;-74
2022/03/17 03:33:20;;;;;;;3.35;0.90;;;10.00;99.90;;;;;;6338604;22;20546;-74
2022/03/17 03:38:30;;;;;;;0.35;0.35;;;10.00;99.90;;;;;;6338299;22;20339;-74
2022/03/17 03:40:56;;;;;;;0.98;0.98;;;10.00;99.90;;;;;;6348667;22;20045;-74
2022/03/17 03:43:22;;;;;;;0.30;0.30;;;10.00;99.90;;;;;;6348546;22;20086;-74
2022/03/17 03:45:50;;;;;;;0.68;0.68;;;10.00;99.90;;;;;;6338348;22;20012;-74
2022/03/17 03:48:16;;;;;;;0.20;0.20;;;10.00;99.90;;;;;;6348815;22;20339;-74
2022/03/17 03:50:42;;;;;;;0.98;0.57;;;9.80;99.90;;;;;;6320980;22;20002;-74
2022/03/17 03:53:08;;;;;;;2.60;1.58;;;9.80;99.90;;;;;;6338007;22;20015;-74
2022/03/17 03:55:33;;;;;;;0.70;0.70;;;9.70;99.90;;;;;;6348368;22;20010;-74
2022/03/17 03:58:00;;;;;;;0.73;0.73;;;9.70;99.90;;;;;;6338288;22;20010;-74
2022/03/17 04:02:55;;;;;;;3.08;0.95;;;9.80;99.90;;;;;;6348549;22;20021;-74
2022/03/17 04:05:34;;;;;;;0.20;0.20;;;9.80;99.90;;;;;;6348296;22;20090;-73
2022/03/17 04:08:01;;;;;;;0.35;0.35;;;9.70;99.90;;;;;;6348283;22;20392;-73
2022/03/17 04:10:27;;;;;;;0.93;0.85;;;9.60;99.90;;;;;;6337948;22;19998;-73
2022/03/17 04:12:54;;;;;;;0.20;0.20;;;9.70;99.90;;;;;;6348287;22;20014;-73
2022/03/17 04:15:20;;;;;;;6.38;1.38;;;9.70;99.90;;;;;;6337955;22;20105;-74
2022/03/17 04:17:46;;;;;;;2.78;1.92;;;9.70;99.90;;;;;;6320472;22;20225;-74
2022/03/17 04:20:12;;;;;;;1.23;1.17;;;9.70;99.90;;;;;;6337195;22;20007;-74
2022/03/17 04:22:38;;;;;;;0.30;0.30;;;9.80;99.90;;;;;;6336596;22;20476;-74
2022/03/17 04:25:06;;;;;;;1.83;1.05;;;9.80;99.90;;;;;;6347809;22;20340;-74
2022/03/17 04:27:31;;;;;;;0.73;0.73;;;9.80;99.90;;;;;;6347886;22;20018;-74
2022/03/17 04:29:57;;;;;;;0.30;0.30;;;9.80;99.90;;;;;;6310676;22;20002;-74
2022/03/17 04:32:23;;;;;;;0.20;0.20;;;9.80;99.90;;;;;;6348245;22;20007;-74
2022/03/17 04:34:49;;;;;;;0.68;0.68;;;9.80;99.90;;;;;;6347938;22;20006;-74
2022/03/17 04:37:15;;;;;;;1.00;0.57;;;9.60;99.90;;;;;;6310652;22;19998;-74
2022/03/17 04:39:40;;;;;;;0.55;0.55;;;9.50;99.90;;;;;;6347896;22;20064;-74
2022/03/17 04:42:06;;;;;;;0.70;0.70;;;9.60;99.90;;;;;;6337890;22;20085;-73
2022/03/17 04:44:32;;;;;;;3.88;1.83;;;9.50;99.90;;;;;;6336767;22;20010;-70
2022/03/17 04:46:58;;;;;;;0.90;0.90;;;9.50;99.90;;;;;;6337955;22;20007;-73
2022/03/17 04:49:23;;;;;;;1.02;1.02;;;9.60;99.90;;;;;;6161309;22;67925;-73
2022/03/17 04:51:49;;;;;;;2.63;1.73;;;9.60;99.90;;;;;;6345721;22;20056;-66
2022/03/17 04:54:15;;;;;;;1.83;1.73;;;9.50;99.90;;;;;;6347629;22;20011;-68
2022/03/17 04:56:40;;;;;;;0.82;0.82;;;9.60;99.90;;;;;;6347566;22;20011;-66
2022/03/17 04:59:06;;;;;;;1.88;1.05;;;9.70;99.90;;;;;;6347873;22;20007;-64
2022/03/17 05:01:32;;;;;;;0.88;0.57;;;9.60;99.90;;;;;;6347178;22;20007;-66
2022/03/17 05:03:58;;;;;;;2.53;1.65;;;9.50;99.90;;;;;;6347770;22;20350;-69
2022/03/17 05:06:24;;;;;;;1.33;1.23;;;9.50;99.90;;;;;;6347580;22;20095;-67
2022/03/17 05:08:49;;;;;;;0.20;0.20;;;9.50;99.90;;;;;;6347321;22;20007;-66
2022/03/17 05:11:15;;;;;;;2.17;1.20;;;9.50;99.90;;;;;;6347511;22;20015;-68
2022/03/17 05:13:43;;;;;;;0.25;0.25;;;9.50;99.90;;;;;;6337423;22;20370;-67
2022/03/17 05:16:09;;;;;;;2.88;2.17;;;9.50;99.90;;;;;;6310057;22;20014;-68
2022/03/17 05:18:36;;;;;;;1.58;1.48;;;9.60;99.90;;;;;;6337533;22;20014;-68
2022/03/17 05:21:03;;;;;;;0.70;0.70;;;9.60;99.90;;;;;;6347363;22;20010;-67
2022/03/17 05:23:30;;;;;;;1.38;1.27;;;9.50;99.90;;;;;;6337495;22;20034;-68
2022/03/17 05:25:57;;;;;;;1.67;1.58;;;9.60;99.90;;;;;;6347471;22;20021;-67
2022/03/17 05:28:23;;;;;;;4.50;1.65;;;9.50;99.90;;;;;;6337380;22;20077;-67
2022/03/17 05:30:49;;;;;;;0.90;0.90;;;9.50;99.90;;;;;;6336976;22;20377;-67
2022/03/17 05:33:18;;;;;;;10.00;3.53;;;9.50;99.90;;;;;;6337443;22;20390;-68
2022/03/17 05:35:44;;;;;;;4.15;1.67;;;9.40;99.90;;;;;;6337132;22;20439;-67
2022/03/17 05:38:12;;;;;;;7.43;1.38;;;9.50;99.90;;;;;;6337340;22;20102;-68
2022/03/17 05:40:38;;;;;;;0.22;0.22;;;9.50;99.90;;;;;;6337248;22;20007;-68
2022/03/17 05:43:08;;;;;;;0.85;0.85;;;9.50;99.90;;;;;;6337057;22;20003;-68
2022/03/17 05:45:35;;;;;;;2.22;1.98;;;9.50;99.90;;;;;;6346919;22;20073;-68
2022/03/17 05:48:04;;;;;;;0.43;0.43;;;9.50;99.90;;;;;;6347220;22;20085;-68
2022/03/17 05:50:42;;;;;;;0.17;0.17;;;9.40;99.90;;;;;;6337195;22;20094;-71
2022/03/17 05:53:09;;;;;;;1.02;0.98;;;9.50;99.90;;;;;;6333536;22;20034;-72
2022/03/17 05:55:35;;;;;;;1.55;1.45;;;9.50;99.90;;;;;;6336080;22;20374;-70
2022/03/17 05:58:01;;;;;;;0.98;0.90;;;9.50;99.90;;;;;;6319434;22;20060;-71
2022/03/17 06:00:29;;;;;;;1.42;1.33;;;9.50;99.90;;;;;;6336894;22;20324;-71
2022/03/17 06:02:57;;;;;;;0.68;0.65;;;9.50;99.90;;;;;;6336981;22;20030;-71
2022/03/17 06:05:23;;;;;;;0.90;0.88;;;9.50;99.90;;;;;;6336929;22;20141;-71
2022/03/17 06:07:52;;;;;;;2.50;2.30;;;9.50;99.90;;;;;;6346857;22;20007;-71
2022/03/17 06:10:22;;;;;;;0.40;0.40;;;9.50;99.90;;;;;;6337128;22;20011;-71
2022/03/17 06:12:51;;;;;;;6.90;1.65;;;9.50;99.90;;;;;;6308629;22;19994;-72
2022/03/17 06:15:19;;;;;;;2.25;2.05;;;9.50;99.90;;;;;;6336739;22;20090;-72
2022/03/17 06:17:48;;;;;;;0.55;0.55;;;9.50;99.90;;;;;;6319479;22;20007;-72
2022/03/17 06:20:18;;;;;;;1.02;1.02;;;9.60;99.90;;;;;;6336762;22;20057;-72
2022/03/17 06:22:46;;;;;;;0.10;0.10;;;9.60;99.90;;;;;;6336048;22;20011;-72
2022/03/17 06:25:15;;;;;;;3.63;3.33;;;9.60;99.90;;;;;;6336280;22;20003;-72
2022/03/17 06:27:43;;;;;;;1.10;1.10;;;9.60;99.90;;;;;;6346665;22;20448;-72
2022/03/17 06:30:20;;;;;;;3.13;2.47;;;9.60;99.90;;;;;;6336414;22;20034;-71
2022/03/17 06:32:47;;;;;;;0.40;0.40;;;9.60;99.90;;;;;;6346438;22;20014;-72
2022/03/17 06:35:27;;;;;;;5.05;2.78;;;9.70;99.90;;;;;;6336596;22;20052;-72
2022/03/17 06:37:59;;;;;;;2.05;1.75;;;9.80;99.90;;;;;;6346519;22;20002;-72
2022/03/17 06:40:29;;;;;;;0.32;0.32;;;9.80;99.90;;;;;;6309142;22;20461;-72
2022/03/17 06:42:55;;;;;;;3.65;1.65;;;9.80;99.90;;;;;;6336509;22;20090;-72
2022/03/17 06:45:22;;;;;;;1.27;1.17;;;9.90;99.90;;;;;;6346786;22;20479;-72
2022/03/17 06:47:48;;;;;;;0.17;0.17;;;9.90;99.90;;;;;;6336555;22;20007;-72
2022/03/17 06:50:17;;;;;;;1.20;1.10;;;9.90;99.90;;;;;;6308742;22;20074;-71
2022/03/17 06:52:43;;;;;;;3.65;2.42;;;9.90;99.90;;;;;;6335958;22;20034;-73
2022/03/17 06:55:09;;;;;;;1.35;1.27;;;10.00;99.90;;;;;;6346656;22;20061;-72
2022/03/17 06:57:35;;;;;;;0.82;0.82;;;10.00;99.90;;;;;;6336363;22;20011;-73
2022/03/17 07:00:13;;;;;;;0.85;0.68;;;10.00;99.90;;;;;;6346517;22;20017;-73
2022/03/17 07:02:39;;;;;;;2.17;1.98;;;10.10;99.90;;;;;;6318966;22;20011;-72
2022/03/17 07:05:06;;;;;;;0.32;0.32;;;10.10;99.90;;;;;;6336605;22;20316;-71
2022/03/17 07:07:33;;;;;;;0.90;0.90;;;10.10;99.90;;;;;;6336461;22;19999;-72
2022/03/17 07:09:59;;;;;;;0.85;0.68;;;10.10;99.90;;;;;;6336512;22;20003;-76
2022/03/17 07:12:25;;;;;;;0.68;0.68;;;10.10;99.90;;;;;;6336409;22;20018;-72
2022/03/17 07:14:51;;;;;;;1.98;1.67;;;10.20;99.90;;;;;;6346325;22;20011;-76
2022/03/17 07:17:20;;;;;;;0.50;0.50;;;10.20;99.90;;;;;;6336532;22;20296;-74
2022/03/17 07:22:27;;;;;;;0.80;0.73;;;10.20;99.90;;;;;;6320896;22;20336;-73
2022/03/17 07:24:53;;;;;;;1.80;1.67;;;10.20;99.90;;;;;;6346317;22;20351;-73
2022/03/17 07:27:21;;;;;;;1.45;1.08;;;10.20;99.90;;;;;;6336121;22;20007;-72
2022/03/17 07:29:48;;;;;;;1.95;0.77;;;10.20;99.90;;;;;;6346358;22;20336;-72
2022/03/17 07:32:14;;;;;;;3.03;1.60;;;10.30;99.90;;;;;;6308836;22;20073;-72
2022/03/17 07:34:39;;;;;;;3.03;1.75;;;10.30;99.90;;;;;;6346644;22;20043;-72
2022/03/17 07:37:05;;;;;;;0.80;0.80;;;10.30;99.90;;;;;;6348373;22;20010;-72
2022/03/17 07:39:31;;;;;;;5.53;3.03;;;10.30;99.90;;;;;;6309922;22;20037;-70
2022/03/17 07:41:57;;;;;;;1.33;1.23;;;10.40;99.90;;;;;;6348110;22;20424;-71
2022/03/17 07:44:22;;;;;;;1.85;0.85;;;10.40;99.90;;;;;;6338049;22;19999;-70
2022/03/17 07:46:48;;;;;;;2.67;2.47;;;10.50;99.90;;;;;;6348313;22;20061;-68
2022/03/17 07:49:14;;;;;;;2.38;2.15;;;10.60;99.90;;;;;;6337939;22;20042;-70
2022/03/17 07:51:40;;;;;;;0.65;0.65;;;10.60;99.90;;;;;;6348117;22;20081;-71
2022/03/17 07:54:07;;;;;;;1.45;1.00;;;10.70;99.90;;;;;;6337170;22;20015;-70
2022/03/17 07:56:33;;;;;;;0.85;0.85;;;10.70;99.90;;;;;;6337521;22;20150;-70
2022/03/17 07:59:00;;;;;;;0.40;0.40;;;10.70;99.90;;;;;;6310370;22;20003;-71
2022/03/17 08:01:26;;;;;;;1.08;1.08;;;10.80;99.90;;;;;;6284420;22;20436;-72
2022/03/17 08:03:55;;;;;;;0.25;0.20;;;10.80;99.90;;;;;;6348593;22;20013;-73
2022/03/17 08:06:25;;;;;;;1.50;1.40;;;10.90;99.90;;;;;;6284668;22;20015;-73
2022/03/17 08:08:51;;;;;;;2.60;2.40;;;10.90;99.90;;;;;;6337852;22;20086;-74
2022/03/17 08:11:17;;;;;;;2.72;1.23;;;11.00;99.90;;;;;;6337901;22;20011;-74
2022/03/17 08:13:45;;;;;;;1.58;0.85;;;11.00;99.90;;;;;;6347843;22;20034;-74
2022/03/17 08:16:12;;;;;;;0.32;0.32;;;11.10;99.90;;;;;;6337826;22;20046;-74
2022/03/17 08:18:38;;;;;;;3.00;2.78;;;11.10;99.90;;;;;;6337681;22;20002;-74
2022/03/17 08:21:04;;;;;;;2.35;2.05;;;11.10;99.90;;;;;;6348059;22;20014;-73
2022/03/17 08:23:30;;;;;;;2.35;1.95;;;11.10;99.90;;;;;;6347787;22;20002;-74
2022/03/17 08:25:56;;;;;;;1.50;1.40;;;11.10;99.90;;;;;;6337237;22;20101;-74
2022/03/17 08:28:24;;;;;;;2.10;2.00;;;11.10;99.90;;;;;;6310218;22;20034;-74
2022/03/17 08:30:51;;;;;;;1.45;1.35;;;11.30;99.90;;;;;;6337599;22;20006;-74
2022/03/17 08:33:18;;;;;;;0.63;0.63;;;11.20;99.90;;;;;;6347484;22;20327;-73
2022/03/17 08:35:47;;;;;;;1.27;1.20;;;11.20;99.90;;;;;;6347365;22;20080;-74
2022/03/17 08:38:13;;;;;;;0.68;0.68;;;11.20;99.90;;;;;;6336890;22;20003;-74
2022/03/17 08:40:40;;;;;;;1.75;1.60;;;11.30;99.90;;;;;;6309414;22;20057;-74
2022/03/17 08:43:08;;;;;;;1.08;1.02;;;11.30;99.90;;;;;;6347505;22;20098;-73
2022/03/17 08:51:04;;;;;;;1.75;1.63;;;11.30;99.90;;;;;;6347022;22;20063;-73
2022/03/17 08:53:31;;;;;;;0.77;0.70;;;11.30;99.90;;;;;;6336586;22;20022;-73
2022/03/17 08:55:57;;;;;;;2.88;2.65;;;11.30;99.90;;;;;;6347274;22;20335;-73
2022/03/17 08:58:24;;;;;;;1.35;0.60;;;11.30;99.90;;;;;;6347290;22;20392;-73
2022/03/17 09:00:50;;;;;;;1.42;1.33;;;11.30;99.90;;;;;;6337100;22;20118;-73
2022/03/17 09:03:15;;;;;;;5.47;1.35;;;11.30;99.90;;;;;;6337257;22;20430;-74
2022/03/17 09:05:41;;;;;;;0.63;0.63;;;11.40;99.90;;;;;;6336860;22;20018;-74
2022/03/17 09:08:09;;;;;;;1.10;0.60;;;11.30;99.90;;;;;;6347519;22;20030;-73
2022/03/17 09:10:36;;;;;;;1.58;1.48;;;11.30;99.90;;;;;;6309898;22;20049;-73
2022/03/17 09:13:09;;;;;;;1.83;1.73;;;11.40;99.90;;;;;;6347496;22;20155;-73
2022/03/17 09:15:41;;;;;;;6.45;1.08;;;11.50;99.90;;;;;;6321226;22;20079;-74
2022/03/17 09:18:10;;;;;;;0.95;0.95;;;11.50;99.90;;;;;;6347552;22;20017;-74
2022/03/17 09:20:38;;;;;;;1.38;0.90;;;11.50;99.90;;;;;;6347465;22;20034;-74
2022/03/17 09:23:04;;;;;;;1.08;1.05;;;11.60;99.90;;;;;;6337199;22;20007;-74
2022/03/17 09:25:31;;;;;;;0.32;0.32;;;11.60;99.90;;;;;;6347441;22;20085;-74
2022/03/17 09:27:57;;;;;;;0.82;0.73;;;11.80;99.90;;;;;;6337145;22;20012;-74
2022/03/17 09:30:23;;;;;;;0.95;0.80;;;11.80;99.90;;;;;;6337125;22;20089;-74
2022/03/17 09:32:52;;;;;;;0.43;0.43;;;11.90;99.90;;;;;;6347299;22;20007;-73
2022/03/17 09:35:19;;;;;;;0.63;0.63;;;11.90;99.90;;;;;;6347259;22;20034;-74
2022/03/17 09:37:45;;;;;;;3.28;0.77;;;11.90;99.90;;;;;;6337334;22;20010;-73
2022/03/17 09:40:11;;;;;;;2.40;1.70;;;11.80;99.90;;;;;;6337216;22;20018;-73
2022/03/17 09:42:38;;;;;;;0.45;0.45;;;11.80;99.90;;;;;;6337309;22;20006;-73
2022/03/17 09:45:06;;;;;;;3.25;2.45;;;11.80;99.90;;;;;;6347338;22;20076;-74
2022/03/17 09:47:44;;;;;;;0.93;0.93;;;11.90;99.90;;;;;;6337529;22;20086;-73
2022/03/17 09:50:14;;;;;;;1.55;1.20;;;11.90;99.90;;;;;;6347415;22;20045;-73
2022/03/17 09:52:44;;;;;;;0.30;0.30;;;11.90;99.90;;;;;;6337098;22;20002;-73
2022/03/17 09:55:10;;;;;;;6.63;2.80;;;11.80;99.90;;;;;;6347168;22;20097;-73
2022/03/17 09:57:40;;;;;;;1.40;1.25;;;12.00;99.90;;;;;;6347091;22;20003;-73
2022/03/17 10:00:07;;;;;;;3.50;1.38;;;12.10;99.90;;;;;;6347094;22;20038;-74
2022/03/17 10:02:34;;;;;;;0.73;0.73;;;12.10;99.90;;;;;;6337334;22;20382;-74
2022/03/17 10:05:01;;;;;;;7.05;4.07;;;12.10;99.90;;;;;;6346909;22;20014;-74
2022/03/17 10:07:27;;;;;;;0.77;0.77;;;12.20;99.90;;;;;;6320064;22;20003;-74
2022/03/17 10:09:52;;;;;;;0.73;0.70;;;12.40;99.90;;;;;;6347088;22;20022;-74
2022/03/17 10:12:20;;;;;;;0.43;0.43;;;12.40;99.90;;;;;;6337118;22;20003;-74
2022/03/17 10:14:53;;;;;;;0.47;0.47;;;12.50;99.90;;;;;;6346910;22;20007;-72
2022/03/17 10:17:37;;;;;;;4.18;2.45;;;12.50;99.90;;;;;;6337167;22;20042;-71
2022/03/17 10:20:27;;;;;;;3.63;0.90;;;12.70;99.90;;;;;;6336419;22;19995;-74
2022/03/17 10:22:56;;;;;;;1.63;1.52;;;12.70;99.90;;;;;;6320628;22;20006;-74
2022/03/17 10:25:29;;;;;;;4.38;1.73;;;12.90;99.90;;;;;;6346996;22;20048;-74
2022/03/17 10:27:56;;;;;;;3.80;1.40;;;12.90;99.90;;;;;;6346983;22;20006;-74
2022/03/17 10:30:33;;;;;;;0.68;0.68;;;13.00;99.90;;;;;;6347117;22;20041;-72
2022/03/17 10:33:28;;;;;;;2.72;2.50;;;13.20;99.90;;;;;;6346852;22;20447;-72
2022/03/17 10:35:54;;;;;;;1.63;1.52;;;13.20;99.90;;;;;;6336811;22;20006;-73
2022/03/17 10:38:27;;;;;;;1.27;1.17;;;13.20;99.90;;;;;;6347089;22;20017;-73
2022/03/17 10:41:11;;;;;;;2.40;2.05;;;13.20;99.90;;;;;;6346774;22;20436;-73
2022/03/17 10:43:42;;;;;;;7.25;1.05;;;13.20;99.90;;;;;;6346942;22;20006;-73
2022/03/17 10:46:19;;;;;;;2.90;1.88;;;13.20;99.90;;;;;;6337041;22;20007;-73
2022/03/17 10:49:06;;;;;;;1.33;1.25;;;13.20;99.90;;;;;;6346998;22;20015;-73
2022/03/17 10:51:43;;;;;;;0.32;0.32;;;13.10;99.90;;;;;;6347038;22;20007;-73
2022/03/17 10:54:20;;;;;;;4.78;2.45;;;13.10;99.90;;;;;;6313990;22;20011;-73
2022/03/17 10:57:09;;;;;;;3.08;1.48;;;13.10;99.90;;;;;;6313844;22;20011;-73
2022/03/17 10:59:43;;;;;;;1.85;1.45;;;12.90;99.90;;;;;;6278265;22;20086;-72
2022/03/17 11:02:17;;;;;;;1.65;1.27;;;12.80;99.90;;;;;;6315724;22;20078;-72
2022/03/17 11:04:44;;;;;;;2.00;1.40;;;12.80;99.90;;;;;;6315445;22;20309;-72
2022/03/17 11:07:14;;;;;;;0.73;0.63;;;12.70;99.90;;;;;;6315738;22;20055;-72
2022/03/17 11:09:42;;;;;;;2.60;2.40;;;12.60;99.90;;;;;;6315806;22;20180;-72
2022/03/17 11:12:11;;;;;;;0.43;0.43;;;12.50;99.90;;;;;;6317614;22;20008;-72
2022/03/17 11:14:55;;;;;;;1.55;1.45;;;12.50;99.90;;;;;;6305939;22;20014;-72
2022/03/17 11:17:28;;;;;;;3.17;2.90;;;12.50;99.90;;;;;;6317609;22;20444;-72
2022/03/17 11:19:58;;;;;;;0.20;0.20;;;12.40;99.90;;;;;;6315128;22;20022;-72
2022/03/17 11:22:29;;;;;;;1.77;1.67;;;12.30;99.90;;;;;;6316699;22;20011;-72
2022/03/17 11:25:23;;;;;;;0.80;0.80;;;12.40;99.90;;;;;;6316372;22;20363;-71
2022/03/17 11:27:55;;;;;;;0.98;0.95;;;12.40;99.90;;;;;;6307109;22;20007;-72
2022/03/17 11:30:22;;;;;;;2.40;1.98;;;12.40;99.90;;;;;;6305593;22;20011;-72
2022/03/17 11:32:58;;;;;;;4.10;1.17;;;12.40;99.90;;;;;;6307083;22;20030;-72
2022/03/17 11:35:32;;;;;;;2.95;1.65;;;12.40;99.90;;;;;;6307254;22;20057;-72
2022/03/17 11:38:26;;;;;;;2.10;1.90;;;12.50;99.90;;;;;;6317333;22;20007;-72
2022/03/17 11:41:15;;;;;;;1.00;0.95;;;12.40;99.90;;;;;;6317007;22;20003;-73
2022/03/17 11:44:04;;;;;;;2.72;1.52;;;12.30;99.90;;;;;;6305575;22;20019;-72
2022/03/17 11:46:46;;;;;;;3.42;2.40;;;12.20;99.90;;;;;;6304924;22;20459;-72
2022/03/17 11:49:25;;;;;;;10.68;4.85;;;12.20;99.90;;;;;;6316988;22;20038;-72
2022/03/17 11:52:03;;;;;;;2.00;1.48;;;12.10;99.90;;;;;;6316859;22;20344;-72
2022/03/17 11:54:31;;;;;;;1.45;1.35;;;12.10;99.90;;;;;;6341959;22;20408;-72
2022/03/17 11:57:04;;;;;;;1.48;1.38;;;12.00;99.90;;;;;;6337364;22;20447;-72
2022/03/17 11:59:56;;;;;;;0.90;0.85;;;12.00;99.90;;;;;;6310268;22;20091;-73
2022/03/17 12:02:29;;;;;;;6.07;2.53;;;11.90;99.90;;;;;;6338040;22;20010;-73
2022/03/17 12:04:55;;;;;;;1.27;1.17;;;12.00;99.90;;;;;;6337666;22;20030;-73
2022/03/17 12:07:21;;;;;;;0.80;0.80;;;12.00;99.90;;;;;;6338050;22;20091;-71
2022/03/17 12:09:48;;;;;;;4.80;1.27;;;12.00;99.90;;;;;;6337835;22;20079;-71
2022/03/17 12:12:25;;;;;;;2.42;0.90;;;11.90;99.90;;;;;;6337929;22;20003;-72
2022/03/17 12:14:59;;;;;;;2.42;2.25;;;11.80;99.90;;;;;;6337830;22;20057;-73
2022/03/17 12:17:29;;;;;;;0.75;0.75;;;11.70;99.90;;;;;;6337814;22;20013;-72
2022/03/17 12:20:14;;;;;;;1.98;1.20;;;11.60;99.90;;;;;;6348079;22;20006;-73
2022/03/17 12:22:44;;;;;;;0.10;0.10;;;11.60;99.90;;;;;;6347604;22;20396;-73
2022/03/17 12:25:23;;;;;;;5.47;2.28;;;11.60;99.90;;;;;;6337655;22;20013;-72
2022/03/17 12:27:59;;;;;;;4.78;1.33;;;11.70;99.90;;;;;;6337620;22;20006;-72
2022/03/17 12:30:26;;;;;;;3.08;1.60;;;11.60;99.90;;;;;;6347435;22;20061;-72
2022/03/17 12:32:58;;;;;;;1.38;1.27;;;11.70;99.90;;;;;;6337342;22;20077;-73
2022/03/17 12:35:31;;;;;;;1.27;1.20;;;11.50;99.90;;;;;;6337463;22;20011;-73
2022/03/17 12:38:08;;;;;;;0.28;0.28;;;11.50;99.90;;;;;;6337570;22;20125;-74
2022/03/17 12:40:46;;;;;;;2.10;1.95;;;11.50;99.90;;;;;;6337276;22;20077;-72
2022/03/17 12:43:17;;;;;;;1.98;1.85;;;11.50;99.90;;;;;;6312483;22;20022;-73
2022/03/17 12:45:49;;;;;;;3.83;2.70;;;11.50;99.90;;;;;;6347876;22;20011;-73
2022/03/17 12:48:17;;;;;;;1.58;1.48;;;11.40;99.90;;;;;;6311231;22;20011;-73
2022/03/17 12:50:44;;;;;;;0.80;0.80;;;11.40;99.90;;;;;;6347908;22;20006;-78
2022/03/17 12:53:10;;;;;;;0.60;0.60;;;11.40;99.90;;;;;;6347344;22;20038;-75
2022/03/17 12:55:50;;;;;;;1.23;1.20;;;11.40;99.90;;;;;;6337646;22;20014;-72
2022/03/17 12:58:16;;;;;;;1.65;1.23;;;11.50;99.90;;;;;;6284937;22;20034;-69
2022/03/17 13:00:45;;;;;;;5.47;0.93;;;11.50;99.90;;;;;;6347760;22;20007;-74
2022/03/17 13:03:17;;;;;;;1.05;1.05;;;11.40;99.90;;;;;;6347592;22;20049;-74
2022/03/17 13:08:40;;;;;;;0.70;0.70;;;11.20;99.90;;;;;;6337604;22;20010;-74
2022/03/17 13:14:20;;;;;;;0.73;0.50;;;11.10;99.90;;;;;;6337334;22;20546;-75
2022/03/17 13:16:57;;;;;;;1.35;1.27;;;11.00;99.90;;;;;;6347608;22;20046;-74
2022/03/17 13:19:23;;;;;;;0.88;0.88;;;10.90;99.90;;;;;;6337310;22;20421;-74
2022/03/17 13:21:51;;;;;;;0.25;0.25;;;10.90;99.90;;;;;;6337317;22;20010;-74
2022/03/17 13:24:20;;;;;;;0.65;0.65;;;10.80;99.90;;;;;;6347436;22;20002;-74